createdAt,value
2022-08-09T00:00:11.239Z,8.44341
2022-08-09T00:06:16.058Z,8.7006
2022-08-09T00:11:24.517Z,9.04593
2022-08-09T00:16:38.287Z,8.8266
2022-08-09T00:21:55.538Z,9.95422
2022-08-09T00:26:59.836Z,8.75245
2022-08-09T00:32:01.757Z,8.6525
2022-08-09T00:37:04.436Z,8.50749
2022-08-09T00:44:19.579Z,8.92231
2022-08-09T00:49:28.232Z,8.82492
2022-08-09T00:54:35.360Z,9.43346
2022-08-09T00:59:46.070Z,10.19744
2022-08-09T01:04:49.017Z,10.23629
2022-08-09T01:09:52.150Z,10.45004
2022-08-09T01:14:53.753Z,10.27099
2022-08-09T01:20:02.632Z,11.20876
2022-08-09T01:25:05.049Z,11.02048
2022-08-09T01:30:08.237Z,11.75843
2022-08-09T01:35:28.257Z,12.70352
2022-08-09T01:40:39.980Z,13.14135
2022-08-09T01:45:46.049Z,13.39979
2022-08-09T01:50:55.038Z,12.94126
2022-08-09T01:55:57.336Z,14.05259
2022-08-09T02:00:58.999Z,13.97326
2022-08-09T02:06:06.604Z,14.35484
2022-08-09T02:11:16.665Z,15.64449
2022-08-09T02:16:19.433Z,15.47549
2022-08-09T02:21:35.775Z,15.73765
2022-08-09T02:26:42.744Z,15.38987
2022-08-09T02:31:44.420Z,16.12024
2022-08-09T02:36:46.128Z,16.20378
2022-08-09T02:41:49.165Z,18.45552
2022-08-09T02:46:52.298Z,17.22553
2022-08-09T02:51:53.972Z,17.49506
2022-08-09T02:56:57.050Z,17.98333
2022-08-09T03:02:06.792Z,17.98003
2022-08-09T03:07:13.967Z,18.44122
2022-08-09T03:12:16.281Z,19.24183
2022-08-09T03:17:26.622Z,20.80541
2022-08-09T03:22:30.355Z,20.30017
2022-08-09T03:27:45.385Z,20.53434
2022-08-09T03:32:47.427Z,22.35739
2022-08-09T03:37:56.127Z,22.71112
2022-08-09T03:42:59.043Z,21.8036
2022-08-09T03:48:00.710Z,24.42165
2022-08-09T03:53:03.026Z,22.68642
2022-08-09T03:58:16.272Z,22.48217
2022-08-09T04:03:24.600Z,21.93875
2022-08-09T04:08:37.500Z,23.41943
2022-08-09T04:14:36.640Z,22.52206
2022-08-09T04:19:50.990Z,25.22191
2022-08-09T04:24:57.670Z,23.61639
2022-08-09T04:29:59.323Z,23.68274
2022-08-09T04:35:01.582Z,23.71865
2022-08-09T04:40:03.311Z,24.29879
2022-08-09T04:45:05.097Z,24.75622
2022-08-09T04:50:06.866Z,24.67703
2022-08-09T04:55:12.147Z,24.61078
2022-08-09T05:00:16.869Z,25.3405
2022-08-09T05:05:31.396Z,25.23936
2022-08-09T05:10:34.298Z,26.22586
2022-08-09T05:15:42.937Z,27.32592
2022-08-09T05:20:49.516Z,28.80108
2022-08-09T05:25:52.514Z,27.33059
2022-08-09T05:30:54.110Z,32.1699
2022-08-09T05:35:57.236Z,33.7117
2022-08-09T05:40:58.903Z,29.10193
2022-08-09T05:46:00.700Z,28.12877
2022-08-09T05:51:30.043Z,27.52368
2022-08-09T05:56:55.252Z,38.50355
2022-08-09T06:01:58.495Z,35.03081
2022-08-09T06:07:00.802Z,35.73972
2022-08-09T06:12:02.740Z,32.5311
2022-08-09T06:17:09.377Z,33.37963
2022-08-09T06:22:15.022Z,31.73159
2022-08-09T06:27:17.279Z,32.13295
2022-08-09T06:32:53.063Z,32.12951
2022-08-09T06:38:06.822Z,32.36163
2022-08-09T06:43:10.413Z,32.38229
2022-08-09T06:48:12.641Z,32.90541
2022-08-09T06:53:18.537Z,35.62761
2022-08-09T06:58:40.643Z,33.27523
2022-08-09T07:06:03.756Z,35.48426
2022-08-09T07:11:07.249Z,40.99391
2022-08-09T07:16:43.863Z,41.63558
2022-08-09T07:21:55.739Z,36.51187
2022-08-09T07:26:59.631Z,37.4448
2022-08-09T07:32:01.680Z,40.15972
2022-08-09T07:37:03.618Z,49.0441
2022-08-09T07:42:05.385Z,46.23661
2022-08-09T07:47:08.119Z,43.35277
2022-08-09T07:52:17.731Z,39.89898
2022-08-09T07:57:19.855Z,38.64809
2022-08-09T08:02:22.094Z,41.83566
2022-08-09T08:08:06.510Z,43.88276
2022-08-09T08:14:01.092Z,44.60818
2022-08-09T08:19:04.417Z,44.73908
2022-08-09T08:24:11.743Z,47.32375
2022-08-09T08:29:20.048Z,59.52197
2022-08-09T08:34:29.344Z,46.22982
2022-08-09T08:39:39.602Z,43.83731
2022-08-09T08:44:46.335Z,42.41743
2022-08-09T08:49:49.344Z,42.63035
2022-08-09T08:54:51.265Z,42.97678
2022-08-09T08:59:53.830Z,48.02816
2022-08-09T09:04:58.983Z,44.11633
2022-08-09T09:10:09.114Z,43.21075
2022-08-09T09:15:12.257Z,42.93947
2022-08-09T09:20:30.459Z,43.62511
2022-08-09T09:26:03.186Z,50.732
2022-08-09T09:31:17.414Z,44.61633
2022-08-09T09:37:05.920Z,48.4181
2022-08-09T09:42:14.821Z,45.4341
2022-08-09T09:47:21.553Z,44.54862
2022-08-09T09:52:36.565Z,45.68646
2022-08-09T09:58:03.859Z,48.03976
2022-08-09T10:03:11.936Z,52.52883
2022-08-09T10:08:27.784Z,45.13742
2022-08-09T10:13:43.130Z,47.30669
2022-08-09T10:18:51.391Z,45.3973
2022-08-09T10:23:56.197Z,49.28152
2022-08-09T10:29:22.462Z,50.26377
2022-08-09T10:35:31.430Z,59.47423
2022-08-09T10:40:39.000Z,47.8464
2022-08-09T10:45:58.499Z,48.5372
2022-08-09T10:51:01.979Z,45.57473
2022-08-09T10:56:03.594Z,45.9906
2022-08-09T11:03:02.429Z,46.1139
2022-08-09T11:08:18.287Z,55.4532
2022-08-09T11:13:49.891Z,49.17055
2022-08-09T11:18:56.439Z,52.85939
2022-08-09T11:23:58.151Z,48.7347
2022-08-09T11:29:00.417Z,50.40028
2022-08-09T11:34:02.206Z,50.27147
2022-08-09T11:39:04.270Z,48.87211
2022-08-09T11:44:05.948Z,46.31771
2022-08-09T11:49:07.602Z,47.80431
2022-08-09T11:54:27.472Z,56.04151
2022-08-09T11:59:33.819Z,47.73244
2022-08-09T12:04:37.575Z,49.04893
2022-08-09T12:09:39.784Z,46.00235
2022-08-09T12:15:07.393Z,45.78547
2022-08-09T12:20:10.969Z,48.07895
2022-08-09T12:25:18.010Z,67.85807
2022-08-09T12:30:39.610Z,52.34152
2022-08-09T12:35:42.851Z,48.56703
2022-08-09T12:40:44.653Z,57.27153
2022-08-09T12:45:59.719Z,47.79088
2022-08-09T12:51:03.715Z,46.29187
2022-08-09T12:56:11.763Z,46.8048
2022-08-09T13:01:18.057Z,46.14783
2022-08-09T13:06:23.677Z,47.31883
2022-08-09T13:11:26.312Z,51.44086
2022-08-09T13:16:28.264Z,51.70604
2022-08-09T13:22:36.206Z,50.14401
2022-08-09T13:27:48.284Z,47.31106
2022-08-09T13:32:57.298Z,52.46611
2022-08-09T13:37:58.858Z,53.02284
2022-08-09T13:43:03.497Z,51.33434
2022-08-09T13:48:10.818Z,49.05016
2022-08-09T13:53:12.684Z,50.0897
2022-08-09T13:58:14.286Z,54.92123
2022-08-09T14:03:58.076Z,51.48544
2022-08-09T14:09:06.322Z,53.09525
2022-08-09T14:14:22.122Z,57.80215
2022-08-09T14:19:33.146Z,51.83908
2022-08-09T14:24:35.493Z,47.48851
2022-08-09T14:30:34.521Z,45.93009
2022-08-09T14:35:52.938Z,46.11692
2022-08-09T14:41:02.010Z,45.73499
2022-08-09T14:46:54.602Z,48.49168
2022-08-09T14:52:06.692Z,46.23901
2022-08-09T14:57:08.698Z,43.93062
2022-08-09T15:02:10.340Z,45.31156
2022-08-09T15:07:14.168Z,42.64316
2022-08-09T15:12:18.888Z,47.74418
2022-08-09T15:17:21.856Z,47.15517
2022-08-09T15:22:27.248Z,39.80078
2022-08-09T15:27:28.954Z,36.87156
2022-08-09T15:32:49.118Z,35.82611
2022-08-09T15:37:57.073Z,34.55746
2022-08-09T15:43:14.252Z,36.04088
2022-08-09T15:48:28.235Z,39.25448
2022-08-09T15:54:03.829Z,34.73268
2022-08-09T15:59:09.819Z,34.43138
2022-08-09T16:04:13.633Z,36.55783
2022-08-09T16:09:15.692Z,31.76384
2022-08-09T16:14:17.301Z,31.07609
2022-08-09T16:19:26.311Z,28.32982
2022-08-09T16:24:33.324Z,27.65805
2022-08-09T16:29:37.860Z,27.15166
2022-08-09T16:34:56.754Z,25.5734
2022-08-09T16:40:05.024Z,26.14252
2022-08-09T16:45:07.913Z,25.27113
2022-08-09T16:50:29.818Z,25.00647
2022-08-09T16:56:00.278Z,23.9769
2022-08-09T17:01:03.656Z,23.58722
2022-08-09T17:06:28.500Z,24.64763
2022-08-09T17:11:41.470Z,22.34338
2022-08-09T17:16:43.706Z,22.81489
2022-08-09T17:21:46.717Z,21.53027
2022-08-09T17:26:52.026Z,20.28551
2022-08-09T17:31:55.484Z,20.71668
2022-08-09T17:37:02.259Z,20.54446
2022-08-09T17:42:04.048Z,20.25272
2022-08-09T17:47:05.712Z,20.53881
2022-08-09T17:52:21.993Z,19.89577
2022-08-09T17:58:03.729Z,19.47663
2022-08-09T18:03:07.446Z,19.05812
2022-08-09T18:08:11.159Z,19.14178
2022-08-09T18:13:43.730Z,19.65424
2022-08-09T18:18:57.610Z,19.31534
2022-08-09T18:24:10.375Z,19.3245
2022-08-09T18:30:39.645Z,19.65387
2022-08-09T18:35:59.098Z,21.18352
2022-08-09T18:41:02.062Z,20.58872
2022-08-09T18:46:49.930Z,20.46123
2022-08-09T18:52:05.096Z,20.85278
2022-08-09T18:57:06.969Z,23.94584
2022-08-09T19:02:10.502Z,24.95236
2022-08-09T19:07:16.605Z,26.24001
2022-08-09T19:12:20.831Z,25.61028
2022-08-09T19:17:23.521Z,23.63553
2022-08-09T19:22:33.347Z,27.87477
2022-08-09T19:27:35.104Z,29.28209
2022-08-09T19:32:38.606Z,28.07888
2022-08-09T19:37:54.573Z,29.62511
2022-08-09T19:42:58.282Z,28.56437
2022-08-09T19:48:01.530Z,26.78878
2022-08-09T19:53:04.770Z,26.20495
2022-08-09T19:58:06.468Z,25.05167
2022-08-09T20:04:10.523Z,30.453
2022-08-09T20:09:44.276Z,25.22781
2022-08-09T20:14:50.332Z,25.84885
2022-08-09T20:19:55.024Z,24.12318
2022-08-09T20:24:56.633Z,28.31387
2022-08-09T20:29:58.281Z,27.12332
2022-08-09T20:34:59.928Z,30.25118
2022-08-09T20:40:16.499Z,30.45686
2022-08-09T20:45:57.187Z,30.84908
2022-08-09T20:51:00.996Z,29.50741
2022-08-09T20:56:03.109Z,30.1338
2022-08-09T21:01:33.272Z,30.51245
2022-08-09T21:06:48.941Z,27.17496
2022-08-09T21:18:22.112Z,27.03916
2022-08-09T21:23:47.618Z,24.79092
2022-08-09T21:28:55.681Z,25.61437
2022-08-09T21:33:57.743Z,25.66829
2022-08-09T21:38:59.914Z,25.63375
2022-08-09T21:44:01.796Z,26.50151
2022-08-09T21:49:05.304Z,26.42666
2022-08-09T21:54:09.076Z,23.90947
2022-08-09T21:59:16.093Z,22.79433
2022-08-09T22:04:18.001Z,26.03093
2022-08-09T22:09:22.299Z,25.59744
2022-08-09T22:14:25.443Z,26.08113
2022-08-09T22:19:58.395Z,26.91342
2022-08-09T22:26:06.058Z,24.05209
2022-08-09T22:31:11.427Z,23.72632
2022-08-09T22:36:14.335Z,23.2907
2022-08-09T22:41:21.122Z,22.58095
2022-08-09T22:48:16.014Z,22.55399
2022-08-09T22:53:58.203Z,23.80437
2022-08-09T22:59:05.886Z,25.00318
2022-08-09T23:04:58.220Z,23.96994
2022-08-09T23:09:59.825Z,25.94316
2022-08-09T23:15:01.489Z,26.15614
2022-08-09T23:20:07.190Z,27.08265
2022-08-09T23:25:09.768Z,25.4183
2022-08-09T23:30:11.458Z,25.60257
2022-08-09T23:35:13.083Z,28.94118
2022-08-09T23:40:14.729Z,25.69591
2022-08-09T23:45:37.475Z,25.51668
2022-08-09T23:50:40.343Z,28.5258
2022-08-09T23:55:49.273Z,26.40028
